createdAt,value
2019-06-01T00:00:27.412Z,97514.33
2019-06-01T00:01:31.106Z,97510.84
2019-06-01T00:02:35.770Z,97512.04
2019-06-01T00:03:40.236Z,97510.91
2019-06-01T00:04:45.265Z,97514.41
2019-06-01T00:05:49.067Z,97512.19
2019-06-01T00:06:53.351Z,97517.83
2019-06-01T00:07:56.912Z,97519.08
2019-06-01T00:09:01.149Z,97517.38
2019-06-01T00:10:06.407Z,97516.25
2019-06-01T00:11:10.618Z,97526.80
2019-06-01T00:12:14.286Z,97520.61
2019-06-01T00:13:18.456Z,97521.17
2019-06-01T00:14:22.110Z,97523.36
2019-06-01T00:15:26.392Z,97521.94
2019-06-01T00:16:29.962Z,97518.78
2019-06-01T00:17:34.174Z,97516.08
2019-06-01T00:18:37.806Z,97513.59
2019-06-01T00:19:42.130Z,97513.38
2019-06-01T00:20:45.778Z,97511.80
2019-06-01T00:21:50.005Z,97509.53
2019-06-01T00:22:53.647Z,97510.89
2019-06-01T00:23:57.892Z,97508.59
2019-06-01T00:25:01.550Z,97514.02
2019-06-01T00:26:05.873Z,97512.66
2019-06-01T00:27:09.919Z,97511.52
2019-06-01T00:28:14.187Z,97507.69
2019-06-01T00:29:17.820Z,97504.98
2019-06-01T00:30:27.109Z,97500.92
2019-06-01T00:31:27.358Z,97501.36
2019-06-01T00:32:31.612Z,97500.70
2019-06-01T00:33:35.257Z,97500.02
2019-06-01T00:34:41.318Z,97496.86
2019-06-01T00:35:45.455Z,97499.39
2019-06-01T00:36:49.788Z,97498.27
2019-06-01T00:37:53.359Z,97496.80
2019-06-01T00:38:57.613Z,97492.95
2019-06-01T00:40:01.243Z,97497.99
2019-06-01T00:41:05.491Z,97498.44
2019-06-01T00:42:09.147Z,97500.64
2019-06-01T00:43:13.798Z,97493.47
2019-06-01T00:44:17.466Z,97495.02
2019-06-01T00:45:22.125Z,97491.73
2019-06-01T00:46:25.779Z,97490.05
2019-06-01T00:47:29.932Z,97490.48
2019-06-01T00:48:33.582Z,97484.63
2019-06-01T00:49:37.842Z,97484.41
2019-06-01T00:50:42.944Z,97488.05
2019-06-01T00:51:47.385Z,97482.08
2019-06-01T00:52:51.412Z,97483.78
2019-06-01T00:53:55.640Z,97491.19
2019-06-01T00:54:59.242Z,97490.91
2019-06-01T00:56:03.419Z,97487.08
2019-06-01T00:57:07.058Z,97489.11
2019-06-01T00:58:11.901Z,97493.62
2019-06-01T00:59:15.622Z,97491.41
2019-06-01T01:00:20.267Z,97492.02
2019-06-01T01:01:23.916Z,97492.80
2019-06-01T01:02:28.600Z,97493.67
2019-06-01T01:03:32.276Z,97494.37
2019-06-01T01:04:36.445Z,97492.63
2019-06-01T01:05:40.077Z,97488.38
2019-06-01T01:06:44.484Z,97490.68
2019-06-01T01:07:48.851Z,97491.61
2019-06-01T01:08:53.208Z,97490.91
2019-06-01T01:09:56.794Z,97489.28
2019-06-01T01:11:01.039Z,97487.32
2019-06-01T01:12:04.678Z,97482.20
2019-06-01T01:13:12.817Z,97483.56
2019-06-01T01:14:16.570Z,97482.42
2019-06-01T01:15:20.821Z,97482.42
2019-06-01T01:16:24.470Z,97480.86
2019-06-01T01:17:28.730Z,97486.27
2019-06-01T01:18:32.406Z,97480.86
2019-06-01T01:19:36.620Z,97481.08
2019-06-01T01:20:40.252Z,97483.11
2019-06-01T01:21:44.415Z,97479.99
2019-06-01T01:22:48.599Z,97480.19
2019-06-01T01:23:53.249Z,97482.25
2019-06-01T01:24:57.961Z,97475.56
2019-06-01T01:26:02.205Z,97473.75
2019-06-01T01:27:05.857Z,97481.49
2019-06-01T01:28:10.077Z,97475.66
2019-06-01T01:29:13.768Z,97474.31
2019-06-01T01:30:18.488Z,97477.66
2019-06-01T01:31:22.126Z,97474.73
2019-06-01T01:32:26.363Z,97475.86
2019-06-01T01:33:29.991Z,97469.59
2019-06-01T01:34:34.262Z,97473.94
2019-06-01T01:35:38.231Z,97472.02
2019-06-01T01:36:42.389Z,97470.45
2019-06-01T01:37:47.728Z,97471.95
2019-06-01T01:38:52.334Z,97468.80
2019-06-01T01:39:56.327Z,97464.22
2019-06-01T01:41:00.627Z,97468.95
2019-06-01T01:42:04.282Z,97470.53
2019-06-01T01:43:08.452Z,97465.68
2019-06-01T01:44:12.014Z,97466.30
2019-06-01T01:45:16.287Z,97471.44
2019-06-01T01:46:19.936Z,97470.72
2019-06-01T01:47:24.169Z,97466.98
2019-06-01T01:48:27.733Z,97466.61
2019-06-01T01:49:31.876Z,97463.00
2019-06-01T01:50:35.568Z,97466.00
2019-06-01T01:51:39.736Z,97460.66
2019-06-01T01:52:43.304Z,97456.18
2019-06-01T01:53:47.469Z,97457.53
2019-06-01T01:54:51.101Z,97467.20
2019-06-01T01:55:55.284Z,97465.43
2019-06-01T01:56:58.938Z,97465.20
2019-06-01T01:58:03.180Z,97466.56
2019-06-01T01:59:06.810Z,97469.42
2019-06-01T02:00:12.756Z,97472.69
2019-06-01T02:01:22.650Z,97472.47
2019-06-01T02:02:22.391Z,97470.96
2019-06-01T02:03:26.048Z,97463.63
2019-06-01T02:04:30.278Z,97466.78
2019-06-01T02:05:33.938Z,97472.61
2019-06-01T02:06:38.111Z,97465.43
2019-06-01T02:07:41.762Z,97467.34
2019-06-01T02:08:46.011Z,97465.92
2019-06-01T02:09:49.641Z,97464.77
2019-06-01T02:10:53.827Z,97465.55
2019-06-01T02:11:57.742Z,97462.57
2019-06-01T02:13:02.425Z,97462.50
2019-06-01T02:14:06.051Z,97466.44
2019-06-01T02:15:10.391Z,97469.91
2019-06-01T02:16:14.056Z,97467.47
2019-06-01T02:17:18.309Z,97469.42
2019-06-01T02:18:21.972Z,97470.28
2019-06-01T02:19:26.221Z,97472.98
2019-06-01T02:20:29.857Z,97476.30
2019-06-01T02:21:34.106Z,97475.44
2019-06-01T02:22:37.729Z,97478.37
2019-06-01T02:23:41.952Z,97473.94
2019-06-01T02:24:45.584Z,97474.50
2019-06-01T02:25:49.822Z,97476.72
2019-06-01T02:26:53.378Z,97474.67
2019-06-01T02:27:57.655Z,97471.33
2019-06-01T02:29:02.454Z,97464.98
2019-06-01T02:30:10.421Z,97468.77
2019-06-01T02:31:14.008Z,97462.45
2019-06-01T02:32:18.185Z,97469.00
2019-06-01T02:33:21.842Z,97456.37
2019-06-01T02:34:26.054Z,97462.36
2019-06-01T02:35:29.702Z,97463.81
2019-06-01T02:36:33.934Z,97459.75
2019-06-01T02:37:37.586Z,97462.11
2019-06-01T02:38:41.896Z,97463.09
2019-06-01T02:39:45.548Z,97467.94
2019-06-01T02:40:49.790Z,97460.16
2019-06-01T02:41:54.930Z,97462.30
2019-06-01T02:43:01.223Z,97466.73
2019-06-01T02:44:06.296Z,97454.34
2019-06-01T02:45:13.011Z,97459.75
2019-06-01T02:46:16.676Z,97458.62
2019-06-01T02:47:20.888Z,97461.74
2019-06-01T02:48:24.571Z,97459.26
2019-06-01T02:49:28.840Z,97458.13
2019-06-01T02:50:32.473Z,97469.17
2019-06-01T02:51:36.773Z,97464.89
2019-06-01T02:52:40.437Z,97468.73
2019-06-01T02:53:44.694Z,97466.47
2019-06-01T02:54:48.430Z,97463.36
2019-06-01T02:55:52.997Z,97465.59
2019-06-01T02:56:57.806Z,97468.52
2019-06-01T02:58:02.518Z,97471.52
2019-06-01T02:59:06.763Z,97467.91
2019-06-01T03:00:11.643Z,97465.55
2019-06-01T03:01:30.231Z,97465.47
2019-06-01T03:02:34.984Z,97465.92
2019-06-01T03:03:38.944Z,97470.51
2019-06-01T03:04:44.057Z,97469.80
2019-06-01T03:05:48.385Z,97473.14
2019-06-01T03:06:55.116Z,97471.11
2019-06-01T03:07:59.370Z,97472.69
2019-06-01T03:09:06.756Z,97469.27
2019-06-01T03:10:11.116Z,97477.38
2019-06-01T03:11:16.350Z,97474.89
2019-06-01T03:12:21.941Z,97471.48
2019-06-01T03:13:29.585Z,97470.05
2019-06-01T03:14:34.800Z,97467.61
2019-06-01T03:15:41.920Z,97470.28
2019-06-01T03:16:47.383Z,97473.62
2019-06-01T03:17:54.240Z,97476.56
2019-06-01T03:19:03.688Z,97475.28
2019-06-01T03:20:08.447Z,97476.94
2019-06-01T03:21:15.039Z,97478.23
2019-06-01T03:22:22.570Z,97479.25
2019-06-01T03:23:27.882Z,97475.53
2019-06-01T03:24:35.002Z,97481.81
2019-06-01T03:25:40.017Z,97476.07
2019-06-01T03:26:46.661Z,97475.84
2019-06-01T03:27:52.134Z,97477.47
2019-06-01T03:28:58.204Z,97476.11
2019-06-01T03:30:06.621Z,97478.97
2019-06-01T03:31:13.162Z,97477.39
2019-06-01T03:32:34.124Z,97478.40
2019-06-01T03:33:22.910Z,97480.16
2019-06-01T03:34:26.562Z,97482.19
2019-06-01T03:35:30.827Z,97481.48
2019-06-01T03:36:34.557Z,97484.97
2019-06-01T03:37:38.889Z,97479.71
2019-06-01T03:38:42.784Z,97482.19
2019-06-01T03:39:46.796Z,97483.55
2019-06-01T03:40:50.438Z,97481.25
2019-06-01T03:41:54.672Z,97480.58
2019-06-01T03:42:58.366Z,97483.13
2019-06-01T03:44:02.653Z,97481.66
2019-06-01T03:45:07.537Z,97486.58
2019-06-01T03:46:13.017Z,97486.53
2019-06-01T03:47:16.855Z,97490.14
2019-06-01T03:48:21.153Z,97485.97
2019-06-01T03:49:24.705Z,97487.95
2019-06-01T03:50:28.880Z,97491.33
2019-06-01T03:51:32.604Z,97488.48
2019-06-01T03:52:36.839Z,97492.98
2019-06-01T03:53:40.564Z,97492.53
2019-06-01T03:54:44.737Z,97497.61
2019-06-01T03:55:48.292Z,97489.27
2019-06-01T03:56:52.477Z,97489.88
2019-06-01T03:57:56.174Z,97497.47
2019-06-01T03:59:01.002Z,97496.49
2019-06-01T04:00:07.462Z,97495.78
2019-06-01T04:01:11.667Z,97498.44
2019-06-01T04:02:15.338Z,97502.34
2019-06-01T04:03:19.939Z,97505.69
2019-06-01T04:04:23.579Z,97502.17
2019-06-01T04:05:27.865Z,97502.63
2019-06-01T04:06:31.514Z,97498.67
2019-06-01T04:07:38.804Z,97500.66
2019-06-01T04:08:41.276Z,97501.91
2019-06-01T04:09:45.547Z,97501.19
2019-06-01T04:10:49.210Z,97504.50
2019-06-01T04:11:53.427Z,97499.66
2019-06-01T04:12:57.119Z,97500.97
2019-06-01T04:14:01.601Z,97504.76
2019-06-01T04:15:11.560Z,97498.29
2019-06-01T04:16:14.607Z,97505.16
2019-06-01T04:17:18.243Z,97503.53
2019-06-01T04:18:22.508Z,97507.59
2019-06-01T04:19:26.130Z,97507.86
2019-06-01T04:20:30.414Z,97506.97
2019-06-01T04:21:34.070Z,97509.94
2019-06-01T04:22:38.293Z,97510.54
2019-06-01T04:23:42.390Z,97508.13
2019-06-01T04:24:46.606Z,97507.30
2019-06-01T04:25:50.242Z,97510.30
2019-06-01T04:26:54.405Z,97506.24
2019-06-01T04:27:58.089Z,97512.52
2019-06-01T04:29:02.401Z,97512.02
2019-06-01T04:30:07.647Z,97511.52
2019-06-01T04:31:12.853Z,97509.53
2019-06-01T04:32:16.855Z,97509.76
2019-06-01T04:33:21.005Z,97508.97
2019-06-01T04:34:24.698Z,97511.30
2019-06-01T04:35:28.992Z,97505.70
2019-06-01T04:36:32.628Z,97508.59
2019-06-01T04:37:36.854Z,97515.36
2019-06-01T04:38:40.503Z,97500.92
2019-06-01T04:39:44.759Z,97507.00
2019-06-01T04:40:48.477Z,97503.50
2019-06-01T04:41:52.682Z,97509.04
2019-06-01T04:42:56.268Z,97502.72
2019-06-01T04:44:00.518Z,97505.84
2019-06-01T04:45:06.746Z,97506.35
2019-06-01T04:46:12.344Z,97500.81
2019-06-01T04:47:16.115Z,97504.94
2019-06-01T04:48:20.398Z,97508.66
2019-06-01T04:49:24.025Z,97502.68
2019-06-01T04:50:28.261Z,97505.73
2019-06-01T04:51:31.905Z,97504.23
2019-06-01T04:52:36.145Z,97503.95
2019-06-01T04:53:39.862Z,97504.36
2019-06-01T04:54:44.125Z,97504.73
2019-06-01T04:55:48.048Z,97503.66
2019-06-01T04:56:52.266Z,97499.46
2019-06-01T04:57:55.918Z,97501.69
2019-06-01T04:59:00.231Z,97508.45
2019-06-01T05:00:15.541Z,97512.80
2019-06-01T05:01:11.669Z,97511.97
2019-06-01T05:02:15.331Z,97506.64
2019-06-01T05:03:19.479Z,97510.15
2019-06-01T05:04:23.133Z,97510.59
2019-06-01T05:05:27.723Z,97510.19
2019-06-01T05:06:31.300Z,97507.08
2019-06-01T05:07:35.632Z,97511.70
2019-06-01T05:08:39.287Z,97506.81
2019-06-01T05:09:43.466Z,97506.45
2019-06-01T05:10:47.141Z,97503.80
2019-06-01T05:11:51.275Z,97500.99
2019-06-01T05:12:54.899Z,97505.55
2019-06-01T05:13:59.170Z,97502.00
2019-06-01T05:15:02.817Z,97502.36
2019-06-01T05:16:07.897Z,97503.34
2019-06-01T05:17:13.367Z,97505.17
2019-06-01T05:18:19.623Z,97495.11
2019-06-01T05:19:22.883Z,97499.50
2019-06-01T05:20:27.143Z,97511.64
2019-06-01T05:21:31.074Z,97505.73
2019-06-01T05:22:35.401Z,97504.38
2019-06-01T05:23:39.092Z,97512.45
2019-06-01T05:24:43.362Z,97511.27
2019-06-01T05:25:47.064Z,97509.76
2019-06-01T05:26:51.313Z,97516.16
2019-06-01T05:27:54.995Z,97515.51
2019-06-01T05:28:59.243Z,97513.41
2019-06-01T05:30:02.898Z,97518.13
2019-06-01T05:31:09.615Z,97519.27
2019-06-01T05:32:12.684Z,97519.75
2019-06-01T05:33:31.080Z,97513.63
2019-06-01T05:34:22.280Z,97516.67
2019-06-01T05:35:26.495Z,97516.48
2019-06-01T05:36:30.216Z,97511.33
2019-06-01T05:37:34.471Z,97513.14
2019-06-01T05:38:38.106Z,97521.52
2019-06-01T05:39:45.170Z,97518.70
2019-06-01T05:40:49.184Z,97525.02
2019-06-01T05:41:53.392Z,97527.76
2019-06-01T05:42:57.035Z,97523.84
2019-06-01T05:44:08.900Z,97517.73
2019-06-01T05:45:11.296Z,97523.58
2019-06-01T05:46:16.062Z,97519.14
2019-06-01T05:47:19.874Z,97516.55
2019-06-01T05:48:28.455Z,97520.75
2019-06-01T05:49:29.477Z,97515.87
2019-06-01T05:50:33.723Z,97525.43
2019-06-01T05:51:37.389Z,97520.19
2019-06-01T05:52:42.006Z,97522.50
2019-06-01T05:53:47.128Z,97523.60
2019-06-01T05:54:51.323Z,97519.20
2019-06-01T05:55:54.958Z,97516.59
2019-06-01T05:56:59.120Z,97519.23
2019-06-01T05:58:02.767Z,97515.91
2019-06-01T05:59:06.984Z,97520.77
2019-06-01T06:00:13.093Z,97517.76
2019-06-01T06:01:19.630Z,97519.04
2019-06-01T06:02:22.796Z,97518.66
2019-06-01T06:03:39.988Z,97514.42
2019-06-01T06:04:32.375Z,97515.06
2019-06-01T06:05:36.680Z,97513.59
2019-06-01T06:06:40.344Z,97517.16
2019-06-01T06:07:44.578Z,97516.03
2019-06-01T06:08:48.218Z,97515.63
2019-06-01T06:09:52.403Z,97525.46
2019-06-01T06:10:56.027Z,97518.13
2019-06-01T06:12:00.277Z,97518.23
2019-06-01T06:13:04.339Z,97513.84
2019-06-01T06:14:08.607Z,97519.59
2019-06-01T06:15:13.543Z,97514.41
2019-06-01T06:16:18.244Z,97517.41
2019-06-01T06:17:24.288Z,97513.42
2019-06-01T06:18:33.981Z,97515.44
2019-06-01T06:19:33.300Z,97517.58
2019-06-01T06:20:37.473Z,97518.22
2019-06-01T06:21:41.181Z,97517.66
2019-06-01T06:22:45.434Z,97518.00
2019-06-01T06:23:49.445Z,97522.74
2019-06-01T06:24:53.680Z,97511.38
2019-06-01T06:25:57.307Z,97515.20
2019-06-01T06:27:04.129Z,97515.84
2019-06-01T06:28:07.695Z,97513.05
2019-06-01T06:29:12.738Z,97514.16
2019-06-01T06:30:16.991Z,97519.77
2019-06-01T06:31:21.298Z,97515.56
2019-06-01T06:32:25.279Z,97515.71
2019-06-01T06:33:29.439Z,97520.62
2019-06-01T06:34:33.106Z,97517.60
2019-06-01T06:35:41.399Z,97511.71
2019-06-01T06:36:45.060Z,97516.77
2019-06-01T06:37:50.152Z,97519.20
2019-06-01T06:38:54.262Z,97520.27
2019-06-01T06:39:58.458Z,97523.99
2019-06-01T06:41:02.011Z,97517.91
2019-06-01T06:42:06.942Z,97516.99
2019-06-01T06:43:19.133Z,97518.28
2019-06-01T06:44:25.225Z,97519.19
2019-06-01T06:45:28.876Z,97523.75
2019-06-01T06:46:33.109Z,97519.91
2019-06-01T06:47:36.674Z,97520.55
2019-06-01T06:48:40.918Z,97511.41
2019-06-01T06:49:44.567Z,97517.38
2019-06-01T06:50:48.791Z,97513.12
2019-06-01T06:51:52.431Z,97511.05
2019-06-01T06:52:56.690Z,97517.31
2019-06-01T06:54:00.337Z,97508.60
2019-06-01T06:55:05.425Z,97506.98
2019-06-01T06:56:08.968Z,97508.91
2019-06-01T06:57:13.253Z,97507.43
2019-06-01T06:58:18.650Z,97504.47
2019-06-01T06:59:22.695Z,97504.75
2019-06-01T07:00:27.036Z,97504.74
2019-06-01T07:01:31.381Z,97507.16
2019-06-01T07:02:35.022Z,97512.31
2019-06-01T07:03:39.260Z,97506.38
2019-06-01T07:04:42.895Z,97504.30
2019-06-01T07:05:47.176Z,97514.34
2019-06-01T07:06:50.766Z,97508.11
2019-06-01T07:07:55.075Z,97514.16
2019-06-01T07:08:58.735Z,97505.07
2019-06-01T07:10:03.080Z,97498.27
2019-06-01T07:11:06.724Z,97498.39
2019-06-01T07:12:10.971Z,97495.67
2019-06-01T07:13:14.613Z,97498.05
2019-06-01T07:14:19.297Z,97496.77
2019-06-01T07:15:23.502Z,97496.53
2019-06-01T07:16:27.901Z,97501.44
2019-06-01T07:17:31.919Z,97499.41
2019-06-01T07:18:36.277Z,97506.48
2019-06-01T07:19:43.080Z,97501.06
2019-06-01T07:20:47.661Z,97501.70
2019-06-01T07:21:51.318Z,97499.89
2019-06-01T07:22:55.564Z,97492.70
2019-06-01T07:23:59.226Z,97504.37
2019-06-01T07:25:03.486Z,97492.86
2019-06-01T07:26:07.131Z,97494.09
2019-06-01T07:27:11.367Z,97495.25
2019-06-01T07:28:16.670Z,97493.86
2019-06-01T07:29:22.014Z,97497.80
2019-06-01T07:30:26.347Z,97493.77
2019-06-01T07:31:30.965Z,97497.85
2019-06-01T07:32:36.912Z,97497.08
2019-06-01T07:33:43.359Z,97494.45
2019-06-01T07:34:47.026Z,97492.81
2019-06-01T07:35:51.250Z,97492.28
2019-06-01T07:36:54.969Z,97492.50
2019-06-01T07:37:59.255Z,97491.33
2019-06-01T07:39:02.883Z,97491.13
2019-06-01T07:40:12.224Z,97497.78
2019-06-01T07:41:13.509Z,97498.55
2019-06-01T07:42:17.683Z,97495.05
2019-06-01T07:43:22.545Z,97492.91
2019-06-01T07:44:27.004Z,97491.73
2019-06-01T07:45:33.521Z,97490.18
2019-06-01T07:46:36.556Z,97494.08
2019-06-01T07:47:40.176Z,97497.75
2019-06-01T07:48:44.833Z,97498.11
2019-06-01T07:49:48.495Z,97496.34
2019-06-01T07:50:52.714Z,97495.55
2019-06-01T07:51:56.567Z,97495.77
2019-06-01T07:53:00.926Z,97496.97
2019-06-01T07:54:04.696Z,97496.34
2019-06-01T07:55:09.097Z,97497.31
2019-06-01T07:56:12.656Z,97492.94
2019-06-01T07:57:16.844Z,97489.94
2019-06-01T07:58:20.913Z,97493.01
2019-06-01T07:59:26.373Z,97492.95
2019-06-01T08:00:30.513Z,97486.53
2019-06-01T08:01:35.109Z,97495.41
2019-06-01T08:02:38.747Z,97499.45
2019-06-01T08:03:43.027Z,97502.23
2019-06-01T08:04:53.166Z,97497.17
2019-06-01T08:05:52.967Z,97488.98
2019-06-01T08:06:56.833Z,97489.00
2019-06-01T08:08:01.249Z,97490.40
2019-06-01T08:09:06.890Z,97488.58
2019-06-01T08:10:11.318Z,97491.47
2019-06-01T08:11:14.970Z,97492.84
2019-06-01T08:12:19.192Z,97491.27
2019-06-01T08:13:23.401Z,97488.16
2019-06-01T08:14:28.638Z,97487.98
2019-06-01T08:15:32.493Z,97490.13
2019-06-01T08:16:36.667Z,97490.33
2019-06-01T08:17:40.324Z,97488.56
2019-06-01T08:18:44.643Z,97486.22
2019-06-01T08:19:51.750Z,97483.64
2019-06-01T08:20:54.318Z,97484.16
2019-06-01T08:21:58.175Z,97488.69
2019-06-01T08:23:02.400Z,97487.35
2019-06-01T08:24:06.211Z,97489.67
2019-06-01T08:25:10.716Z,97495.55
2019-06-01T08:26:14.798Z,97496.52
2019-06-01T08:27:19.054Z,97504.53
2019-06-01T08:28:22.670Z,97493.19
2019-06-01T08:29:26.989Z,97501.78
2019-06-01T08:30:30.773Z,97500.84
2019-06-01T08:31:35.397Z,97498.16
2019-06-01T08:32:39.017Z,97491.19
2019-06-01T08:33:43.335Z,97496.02
2019-06-01T08:34:46.899Z,97499.09
2019-06-01T08:35:52.174Z,97494.75
2019-06-01T08:36:55.823Z,97488.17
2019-06-01T08:38:00.025Z,97491.33
2019-06-01T08:39:05.434Z,97492.09
2019-06-01T08:40:09.783Z,97480.88
2019-06-01T08:41:13.448Z,97488.20
2019-06-01T08:42:17.595Z,97486.09
2019-06-01T08:43:21.255Z,97488.86
2019-06-01T08:44:25.783Z,97487.41
2019-06-01T08:45:29.723Z,97490.66
2019-06-01T08:46:34.121Z,97489.63
2019-06-01T08:47:38.111Z,97484.52
2019-06-01T08:48:42.420Z,97488.05
2019-06-01T08:49:46.002Z,97482.16
2019-06-01T08:50:50.281Z,97477.58
2019-06-01T08:51:53.831Z,97479.28
2019-06-01T08:52:58.119Z,97481.55
2019-06-01T08:54:01.817Z,97477.77
2019-06-01T08:55:09.420Z,97478.55
2019-06-01T08:56:15.370Z,97475.92
2019-06-01T08:57:19.611Z,97477.34
2019-06-01T08:58:24.161Z,97478.27
2019-06-01T08:59:28.471Z,97477.47
2019-06-01T09:00:32.642Z,97477.34
2019-06-01T09:01:36.948Z,97470.45
2019-06-01T09:02:40.592Z,97478.58
2019-06-01T09:03:46.818Z,97472.22
2019-06-01T09:04:50.137Z,97470.12
2019-06-01T09:05:54.743Z,97472.14
2019-06-01T09:06:58.428Z,97472.55
2019-06-01T09:08:02.643Z,97465.00
2019-06-01T09:09:11.556Z,97465.91
2019-06-01T09:10:15.478Z,97467.09
2019-06-01T09:11:19.067Z,97464.47
2019-06-01T09:12:23.233Z,97465.41
2019-06-01T09:13:27.190Z,97467.86
2019-06-01T09:14:31.515Z,97464.30
2019-06-01T09:15:35.549Z,97461.44
2019-06-01T09:16:39.941Z,97460.72
2019-06-01T09:17:43.597Z,97455.09
2019-06-01T09:18:47.810Z,97458.64
2019-06-01T09:19:51.448Z,97454.05
2019-06-01T09:20:55.856Z,97453.84
2019-06-01T09:21:59.514Z,97451.47
2019-06-01T09:23:03.755Z,97454.97
2019-06-01T09:24:07.930Z,97457.59
2019-06-01T09:25:12.560Z,97459.89
2019-06-01T09:26:16.272Z,97458.61
2019-06-01T09:27:20.545Z,97459.13
2019-06-01T09:28:25.672Z,97458.03
2019-06-01T09:29:30.156Z,97465.19
2019-06-01T09:30:34.089Z,97458.41
2019-06-01T09:31:38.258Z,97457.41
2019-06-01T09:32:42.012Z,97450.40
2019-06-01T09:33:46.192Z,97449.73
2019-06-01T09:34:49.845Z,97448.80
2019-06-01T09:35:56.344Z,97446.47
2019-06-01T09:36:59.414Z,97445.17
2019-06-01T09:38:03.764Z,97445.80
2019-06-01T09:39:08.538Z,97443.62
2019-06-01T09:40:13.190Z,97440.41
2019-06-01T09:41:16.860Z,97435.88
2019-06-01T09:42:21.107Z,97432.95
2019-06-01T09:43:24.705Z,97433.28
2019-06-01T09:44:29.878Z,97428.38
2019-06-01T09:45:36.339Z,97434.18
2019-06-01T09:46:40.920Z,97430.73
2019-06-01T09:47:44.660Z,97434.74
2019-06-01T09:48:48.976Z,97430.54
2019-06-01T09:49:52.568Z,97431.36
2019-06-01T09:50:56.774Z,97421.44
2019-06-01T09:52:00.433Z,97424.27
2019-06-01T09:53:05.047Z,97424.86
2019-06-01T09:54:08.729Z,97428.69
2019-06-01T09:55:13.797Z,97423.05
2019-06-01T09:56:17.416Z,97424.16
2019-06-01T09:57:22.077Z,97421.63
2019-06-01T09:58:25.696Z,97425.64
2019-06-01T09:59:29.914Z,97420.73
2019-06-01T10:00:34.855Z,97424.31
2019-06-01T10:01:39.209Z,97411.75
2019-06-01T10:02:43.271Z,97409.62
2019-06-01T10:03:47.542Z,97411.23
2019-06-01T10:04:51.180Z,97412.66
2019-06-01T10:06:01.954Z,97408.42
2019-06-01T10:07:00.880Z,97410.03
2019-06-01T10:08:05.206Z,97403.38
2019-06-01T10:09:12.173Z,97403.01
2019-06-01T10:10:16.460Z,97407.10
2019-06-01T10:11:20.146Z,97403.58
2019-06-01T10:12:24.359Z,97398.25
2019-06-01T10:13:27.995Z,97394.02
2019-06-01T10:14:32.642Z,97395.33
2019-06-01T10:15:36.537Z,97393.53
2019-06-01T10:16:40.827Z,97400.27
2019-06-01T10:17:44.681Z,97394.97
2019-06-01T10:18:48.922Z,97396.14
2019-06-01T10:19:52.554Z,97395.67
2019-06-01T10:20:56.733Z,97392.66
2019-06-01T10:22:00.459Z,97389.99
2019-06-01T10:23:04.708Z,97392.70
2019-06-01T10:24:08.364Z,97381.70
2019-06-01T10:25:12.867Z,97374.34
2019-06-01T10:26:16.512Z,97376.44
2019-06-01T10:27:20.793Z,97377.30
2019-06-01T10:28:24.890Z,97378.35
2019-06-01T10:29:30.439Z,97365.07
2019-06-01T10:30:34.126Z,97369.53
2019-06-01T10:31:41.088Z,97352.25
2019-06-01T10:32:43.700Z,97368.88
2019-06-01T10:33:51.341Z,97365.53
2019-06-01T10:34:53.323Z,97363.52
2019-06-01T10:35:57.960Z,97363.17
2019-06-01T10:37:01.584Z,97361.95
2019-06-01T10:38:05.998Z,97365.27
2019-06-01T10:39:09.644Z,97367.67
2019-06-01T10:40:13.908Z,97365.55
2019-06-01T10:41:17.531Z,97361.58
2019-06-01T10:42:21.737Z,97375.64
2019-06-01T10:43:25.297Z,97356.16
2019-06-01T10:44:29.487Z,97361.16
2019-06-01T10:45:33.577Z,97358.59
2019-06-01T10:46:40.188Z,97359.67
2019-06-01T10:47:44.270Z,97351.22
2019-06-01T10:48:48.496Z,97360.84
2019-06-01T10:49:52.396Z,97357.19
2019-06-01T10:50:56.638Z,97351.57
2019-06-01T10:52:00.214Z,97350.25
2019-06-01T10:53:04.435Z,97354.83
2019-06-01T10:54:08.062Z,97354.42
2019-06-01T10:55:12.492Z,97351.94
2019-06-01T10:56:16.159Z,97349.50
2019-06-01T10:57:20.375Z,97345.87
2019-06-01T10:58:24.018Z,97348.91
2019-06-01T10:59:28.259Z,97343.20
2019-06-01T11:00:39.807Z,97341.75
2019-06-01T11:01:38.908Z,97342.22
2019-06-01T11:02:43.305Z,97343.60
2019-06-01T11:03:47.713Z,97342.05
2019-06-01T11:04:51.361Z,97344.69
2019-06-01T11:05:55.520Z,97345.84
2019-06-01T11:06:59.094Z,97340.80
2019-06-01T11:08:03.300Z,97342.22
2019-06-01T11:09:09.563Z,97337.55
2019-06-01T11:10:15.439Z,97334.88
2019-06-01T11:11:19.093Z,97335.22
2019-06-01T11:12:23.291Z,97335.09
2019-06-01T11:13:26.851Z,97334.41
2019-06-01T11:14:31.138Z,97333.85
2019-06-01T11:15:35.108Z,97330.44
2019-06-01T11:16:39.641Z,97329.00
2019-06-01T11:17:43.345Z,97331.29
2019-06-01T11:18:48.085Z,97322.11
2019-06-01T11:19:51.854Z,97320.59
2019-06-01T11:20:56.161Z,97323.02
2019-06-01T11:21:59.796Z,97316.91
2019-06-01T11:23:04.042Z,97313.73
2019-06-01T11:24:07.962Z,97316.73
2019-06-01T11:25:13.231Z,97313.77
2019-06-01T11:26:16.860Z,97316.84
2019-06-01T11:27:21.186Z,97307.47
2019-06-01T11:28:24.865Z,97305.68
2019-06-01T11:29:29.188Z,97302.17
2019-06-01T11:30:33.514Z,97305.41
2019-06-01T11:31:38.330Z,97311.48
2019-06-01T11:32:43.622Z,97303.48
2019-06-01T11:33:48.175Z,97307.57
2019-06-01T11:34:51.827Z,97304.42
2019-06-01T11:35:56.406Z,97305.61
2019-06-01T11:37:05.362Z,97302.11
2019-06-01T11:38:06.215Z,97302.09
2019-06-01T11:39:10.149Z,97305.09
2019-06-01T11:40:14.498Z,97297.61
2019-06-01T11:41:18.775Z,97301.30
2019-06-01T11:42:23.686Z,97297.80
2019-06-01T11:43:27.248Z,97301.11
2019-06-01T11:44:31.888Z,97300.23
2019-06-01T11:45:36.617Z,97288.98
2019-06-01T11:46:41.153Z,97292.59
2019-06-01T11:47:45.239Z,97287.31
2019-06-01T11:48:49.534Z,97294.67
2019-06-01T11:49:53.280Z,97289.44
2019-06-01T11:50:57.484Z,97289.69
2019-06-01T11:52:01.106Z,97290.69
2019-06-01T11:53:05.334Z,97285.03
2019-06-01T11:54:08.973Z,97288.66
2019-06-01T11:55:14.053Z,97296.58
2019-06-01T11:56:18.071Z,97286.75
2019-06-01T11:57:22.353Z,97283.77
2019-06-01T11:58:25.987Z,97284.70
2019-06-01T11:59:30.218Z,97283.31
2019-06-01T12:00:35.297Z,97283.51
2019-06-01T12:01:39.863Z,97281.45
2019-06-01T12:02:43.916Z,97286.59
2019-06-01T12:03:48.360Z,97284.27
2019-06-01T12:04:51.987Z,97290.73
2019-06-01T12:05:56.260Z,97285.48
2019-06-01T12:07:16.172Z,97288.64
2019-06-01T12:08:06.324Z,97286.60
2019-06-01T12:09:09.986Z,97290.73
2019-06-01T12:10:14.492Z,97286.20
2019-06-01T12:11:20.427Z,97281.38
2019-06-01T12:12:24.650Z,97288.56
2019-06-01T12:13:28.320Z,97286.59
2019-06-01T12:14:32.298Z,97282.52
2019-06-01T12:15:36.267Z,97283.27
2019-06-01T12:16:40.995Z,97282.25
2019-06-01T12:17:44.928Z,97278.48
2019-06-01T12:18:49.252Z,97281.05
2019-06-01T12:19:52.907Z,97273.88
2019-06-01T12:20:57.191Z,97279.02
2019-06-01T12:22:01.156Z,97275.66
2019-06-01T12:23:05.374Z,97274.88
2019-06-01T12:24:09.083Z,97275.39
2019-06-01T12:25:13.507Z,97271.12
2019-06-01T12:26:17.507Z,97276.44
2019-06-01T12:27:21.722Z,97267.98
2019-06-01T12:28:25.451Z,97265.09
2019-06-01T12:29:29.678Z,97261.98
2019-06-01T12:30:33.315Z,97269.58
2019-06-01T12:31:37.724Z,97262.84
2019-06-01T12:32:41.937Z,97261.91
2019-06-01T12:33:46.501Z,97264.31
2019-06-01T12:34:50.206Z,97264.07
2019-06-01T12:35:54.408Z,97265.27